sensor_id;sensor_type;location;lat;lon;timestamp;pressure;altitude;pressure_sealevel;temperature;humidity
62510;BME280;48558;48.242;11.654;2023-02-02T00:01:46;96644.78;;;4.32;100.00
62510;BME280;48558;48.242;11.654;2023-02-02T00:06:00;96635.09;;;4.28;100.00
62510;BME280;48558;48.242;11.654;2023-02-02T00:10:12;96647.97;;;4.27;100.00
62510;BME280;48558;48.242;11.654;2023-02-02T00:14:25;96640.63;;;4.24;100.00
62510;BME280;48558;48.242;11.654;2023-02-02T00:18:37;96628.56;;;4.18;100.00
62510;BME280;48558;48.242;11.654;2023-02-02T00:22:50;96634.19;;;4.11;100.00
62510;BME280;48558;48.242;11.654;2023-02-02T00:27:03;96616.38;;;4.26;100.00
62510;BME280;48558;48.242;11.654;2023-02-02T00:31:15;96616.53;;;4.16;100.00
62510;BME280;48558;48.242;11.654;2023-02-02T00:35:28;96597.88;;;4.07;100.00
62510;BME280;48558;48.242;11.654;2023-02-02T00:39:40;96615.63;;;3.96;100.00
62510;BME280;48558;48.242;11.654;2023-02-02T00:43:54;96604.44;;;3.87;100.00
62510;BME280;48558;48.242;11.654;2023-02-02T00:48:25;96610.09;;;3.73;100.00
62510;BME280;48558;48.242;11.654;2023-02-02T00:52:38;96603.50;;;3.70;100.00
62510;BME280;48558;48.242;11.654;2023-02-02T00:56:51;96602.34;;;3.68;100.00
62510;BME280;48558;48.242;11.654;2023-02-02T01:01:04;96606.22;;;3.70;100.00
62510;BME280;48558;48.242;11.654;2023-02-02T01:05:17;96617.09;;;3.74;100.00
62510;BME280;48558;48.242;11.654;2023-02-02T01:09:40;96588.59;;;3.75;100.00
62510;BME280;48558;48.242;11.654;2023-02-02T01:13:52;96599.06;;;3.80;100.00
62510;BME280;48558;48.242;11.654;2023-02-02T01:18:05;96593.97;;;3.82;100.00
62510;BME280;48558;48.242;11.654;2023-02-02T01:22:17;96588.19;;;3.76;100.00
62510;BME280;48558;48.242;11.654;2023-02-02T01:26:30;96601.53;;;3.71;100.00
62510;BME280;48558;48.242;11.654;2023-02-02T01:30:47;96595.91;;;3.81;100.00
62510;BME280;48558;48.242;11.654;2023-02-02T01:35:10;96587.66;;;3.85;100.00
62510;BME280;48558;48.242;11.654;2023-02-02T01:39:23;96588.09;;;3.83;100.00
62510;BME280;48558;48.242;11.654;2023-02-02T01:47:58;96592.47;;;4.04;100.00
62510;BME280;48558;48.242;11.654;2023-02-02T01:52:12;96574.47;;;4.06;100.00
62510;BME280;48558;48.242;11.654;2023-02-02T01:56:34;96573.69;;;4.06;100.00
62510;BME280;48558;48.242;11.654;2023-02-02T02:00:50;96552.53;;;4.10;100.00
62510;BME280;48558;48.242;11.654;2023-02-02T02:05:05;96576.25;;;4.16;100.00
62510;BME280;48558;48.242;11.654;2023-02-02T02:09:18;96563.78;;;4.15;100.00
62510;BME280;48558;48.242;11.654;2023-02-02T02:13:34;96576.75;;;4.11;100.00
62510;BME280;48558;48.242;11.654;2023-02-02T02:18:39;96564.16;;;4.17;100.00
62510;BME280;48558;48.242;11.654;2023-02-02T02:32:45;96569.97;;;4.19;100.00
62510;BME280;48558;48.242;11.654;2023-02-02T02:37:06;96527.56;;;4.08;100.00
62510;BME280;48558;48.242;11.654;2023-02-02T02:41:28;96577.16;;;4.10;100.00
62510;BME280;48558;48.242;11.654;2023-02-02T02:45:45;96561.00;;;4.19;100.00
62510;BME280;48558;48.242;11.654;2023-02-02T02:49:57;96572.72;;;4.19;100.00
62510;BME280;48558;48.242;11.654;2023-02-02T02:54:14;96574.63;;;4.22;100.00
62510;BME280;48558;48.242;11.654;2023-02-02T02:59:10;96550.72;;;4.26;100.00
62510;BME280;48558;48.242;11.654;2023-02-02T03:08:31;96579.94;;;4.06;100.00
62510;BME280;48558;48.242;11.654;2023-02-02T03:12:49;96561.19;;;4.05;100.00
62510;BME280;48558;48.242;11.654;2023-02-02T03:17:02;96552.50;;;4.13;100.00
62510;BME280;48558;48.242;11.654;2023-02-02T03:21:14;96581.56;;;4.00;100.00
62510;BME280;48558;48.242;11.654;2023-02-02T03:25:27;96565.22;;;3.70;100.00
62510;BME280;48558;48.242;11.654;2023-02-02T03:29:39;96566.91;;;3.60;100.00
62510;BME280;48558;48.242;11.654;2023-02-02T03:33:52;96576.44;;;3.79;100.00
62510;BME280;48558;48.242;11.654;2023-02-02T03:38:05;96566.72;;;3.75;100.00
62510;BME280;48558;48.242;11.654;2023-02-02T03:42:18;96588.53;;;3.78;100.00
62510;BME280;48558;48.242;11.654;2023-02-02T03:46:30;96592.56;;;3.70;100.00
62510;BME280;48558;48.242;11.654;2023-02-02T03:50:43;96560.22;;;3.65;100.00
62510;BME280;48558;48.242;11.654;2023-02-02T03:54:55;96564.50;;;3.66;100.00
62510;BME280;48558;48.242;11.654;2023-02-02T03:59:08;96567.19;;;3.70;100.00
62510;BME280;48558;48.242;11.654;2023-02-02T04:03:20;96566.31;;;3.76;100.00
62510;BME280;48558;48.242;11.654;2023-02-02T04:07:33;96583.13;;;3.75;100.00
62510;BME280;48558;48.242;11.654;2023-02-02T04:11:55;96565.91;;;3.78;100.00
62510;BME280;48558;48.242;11.654;2023-02-02T04:16:09;96570.16;;;3.82;100.00
62510;BME280;48558;48.242;11.654;2023-02-02T04:20:22;96575.63;;;3.82;100.00
62510;BME280;48558;48.242;11.654;2023-02-02T04:24:35;96570.59;;;3.77;100.00
62510;BME280;48558;48.242;11.654;2023-02-02T04:28:48;96555.00;;;3.78;100.00
62510;BME280;48558;48.242;11.654;2023-02-02T04:33:00;96585.59;;;3.92;100.00
62510;BME280;48558;48.242;11.654;2023-02-02T04:37:13;96585.19;;;3.67;100.00
62510;BME280;48558;48.242;11.654;2023-02-02T04:41:25;96594.03;;;3.48;100.00
62510;BME280;48558;48.242;11.654;2023-02-02T04:45:38;96577.53;;;3.55;100.00
62510;BME280;48558;48.242;11.654;2023-02-02T04:50:01;96569.63;;;3.64;100.00
62510;BME280;48558;48.242;11.654;2023-02-02T04:54:13;96572.97;;;3.75;100.00
62510;BME280;48558;48.242;11.654;2023-02-02T04:58:36;96594.25;;;3.87;100.00
62510;BME280;48558;48.242;11.654;2023-02-02T05:02:49;96579.94;;;3.80;100.00
62510;BME280;48558;48.242;11.654;2023-02-02T05:07:02;96580.25;;;3.85;100.00
62510;BME280;48558;48.242;11.654;2023-02-02T05:11:17;96570.88;;;3.86;100.00
62510;BME280;48558;48.242;11.654;2023-02-02T05:15:34;96575.81;;;3.95;100.00
62510;BME280;48558;48.242;11.654;2023-02-02T05:19:46;96606.34;;;3.90;100.00
62510;BME280;48558;48.242;11.654;2023-02-02T05:24:04;96595.09;;;3.84;100.00
62510;BME280;48558;48.242;11.654;2023-02-02T05:28:16;96596.38;;;3.76;100.00
62510;BME280;48558;48.242;11.654;2023-02-02T05:32:29;96606.03;;;3.84;100.00
62510;BME280;48558;48.242;11.654;2023-02-02T05:36:41;96586.03;;;3.91;100.00
62510;BME280;48558;48.242;11.654;2023-02-02T05:40:54;96609.75;;;3.97;100.00
62510;BME280;48558;48.242;11.654;2023-02-02T05:45:07;96626.53;;;3.99;100.00
62510;BME280;48558;48.242;11.654;2023-02-02T05:49:20;96590.25;;;3.95;100.00
62510;BME280;48558;48.242;11.654;2023-02-02T05:53:32;96611.28;;;3.98;100.00
62510;BME280;48558;48.242;11.654;2023-02-02T05:57:54;96617.25;;;3.93;100.00
62510;BME280;48558;48.242;11.654;2023-02-02T06:02:07;96605.19;;;3.87;100.00
62510;BME280;48558;48.242;11.654;2023-02-02T06:06:20;96605.78;;;4.02;100.00
62510;BME280;48558;48.242;11.654;2023-02-02T06:10:32;96615.94;;;4.01;100.00
62510;BME280;48558;48.242;11.654;2023-02-02T06:14:45;96622.00;;;4.16;100.00
62510;BME280;48558;48.242;11.654;2023-02-02T06:18:57;96610.75;;;4.10;100.00
62510;BME280;48558;48.242;11.654;2023-02-02T06:23:10;96618.88;;;4.14;100.00
62510;BME280;48558;48.242;11.654;2023-02-02T06:27:22;96614.16;;;4.18;100.00
62510;BME280;48558;48.242;11.654;2023-02-02T06:31:45;96619.56;;;4.21;100.00
62510;BME280;48558;48.242;11.654;2023-02-02T06:35:59;96608.59;;;4.25;100.00
62510;BME280;48558;48.242;11.654;2023-02-02T06:40:16;96611.25;;;4.28;100.00
62510;BME280;48558;48.242;11.654;2023-02-02T06:44:39;96639.06;;;4.23;100.00
62510;BME280;48558;48.242;11.654;2023-02-02T06:48:51;96656.84;;;4.39;100.00
62510;BME280;48558;48.242;11.654;2023-02-02T06:53:04;96643.25;;;4.31;100.00
62510;BME280;48558;48.242;11.654;2023-02-02T06:57:27;96642.06;;;4.32;100.00
62510;BME280;48558;48.242;11.654;2023-02-02T07:01:40;96646.00;;;4.31;100.00
62510;BME280;48558;48.242;11.654;2023-02-02T07:05:55;96658.00;;;4.38;100.00
62510;BME280;48558;48.242;11.654;2023-02-02T07:10:07;96660.03;;;4.33;100.00
62510;BME280;48558;48.242;11.654;2023-02-02T07:14:40;96666.41;;;4.23;100.00
62510;BME280;48558;48.242;11.654;2023-02-02T07:18:53;96667.09;;;4.31;100.00
62510;BME280;48558;48.242;11.654;2023-02-02T07:23:05;96628.84;;;4.27;100.00
62510;BME280;48558;48.242;11.654;2023-02-02T07:27:18;96674.72;;;4.16;100.00
62510;BME280;48558;48.242;11.654;2023-02-02T07:31:30;96698.16;;;4.17;100.00
62510;BME280;48558;48.242;11.654;2023-02-02T07:35:46;96700.16;;;4.13;100.00
62510;BME280;48558;48.242;11.654;2023-02-02T07:39:59;96681.84;;;4.10;100.00
62510;BME280;48558;48.242;11.654;2023-02-02T07:44:21;96705.72;;;4.06;100.00
62510;BME280;48558;48.242;11.654;2023-02-02T07:48:34;96701.06;;;4.03;100.00
62510;BME280;48558;48.242;11.654;2023-02-02T07:52:47;96708.53;;;3.99;100.00
62510;BME280;48558;48.242;11.654;2023-02-02T07:57:00;96707.81;;;3.95;100.00
62510;BME280;48558;48.242;11.654;2023-02-02T08:01:23;96715.53;;;4.00;100.00
62510;BME280;48558;48.242;11.654;2023-02-02T08:05:38;96708.19;;;3.97;100.00
62510;BME280;48558;48.242;11.654;2023-02-02T08:09:50;96704.31;;;3.95;100.00
62510;BME280;48558;48.242;11.654;2023-02-02T08:14:03;96719.31;;;4.13;100.00
62510;BME280;48558;48.242;11.654;2023-02-02T08:18:16;96706.50;;;4.07;100.00
62510;BME280;48558;48.242;11.654;2023-02-02T08:22:30;96734.00;;;4.23;100.00
62510;BME280;48558;48.242;11.654;2023-02-02T08:26:42;96748.47;;;4.23;100.00
62510;BME280;48558;48.242;11.654;2023-02-02T08:30:55;96749.19;;;4.27;100.00
62510;BME280;48558;48.242;11.654;2023-02-02T08:35:08;96734.00;;;4.23;100.00
62510;BME280;48558;48.242;11.654;2023-02-02T08:39:20;96749.25;;;4.24;100.00
62510;BME280;48558;48.242;11.654;2023-02-02T08:43:33;96754.66;;;4.27;100.00
62510;BME280;48558;48.242;11.654;2023-02-02T08:47:46;96761.41;;;4.19;100.00
62510;BME280;48558;48.242;11.654;2023-02-02T08:52:09;96759.53;;;4.13;100.00
62510;BME280;48558;48.242;11.654;2023-02-02T08:56:22;96763.16;;;4.06;100.00
62510;BME280;48558;48.242;11.654;2023-02-02T09:00:35;96762.72;;;4.11;100.00
62510;BME280;48558;48.242;11.654;2023-02-02T09:04:47;96756.63;;;3.97;100.00
62510;BME280;48558;48.242;11.654;2023-02-02T09:09:00;96753.50;;;4.28;100.00
62510;BME280;48558;48.242;11.654;2023-02-02T09:13:13;96762.94;;;4.24;100.00
62510;BME280;48558;48.242;11.654;2023-02-02T09:17:25;96777.31;;;4.31;100.00
62510;BME280;48558;48.242;11.654;2023-02-02T09:21:50;96799.56;;;4.30;100.00
62510;BME280;48558;48.242;11.654;2023-02-02T09:30:30;96767.63;;;4.23;100.00
62510;BME280;48558;48.242;11.654;2023-02-02T09:34:43;96771.84;;;4.28;100.00
62510;BME280;48558;48.242;11.654;2023-02-02T09:38:55;96769.81;;;4.35;100.00
62510;BME280;48558;48.242;11.654;2023-02-02T09:52:32;96790.88;;;4.69;100.00
62510;BME280;48558;48.242;11.654;2023-02-02T09:56:51;96785.53;;;4.58;100.00
62510;BME280;48558;48.242;11.654;2023-02-02T10:01:11;96777.75;;;4.57;100.00
62510;BME280;48558;48.242;11.654;2023-02-02T10:05:41;96773.63;;;4.72;100.00
62510;BME280;48558;48.242;11.654;2023-02-02T10:10:00;96766.09;;;4.79;100.00
62510;BME280;48558;48.242;11.654;2023-02-02T10:14:26;96804.78;;;4.81;100.00
62510;BME280;48558;48.242;11.654;2023-02-02T10:23:24;96773.94;;;5.04;100.00
62510;BME280;48558;48.242;11.654;2023-02-02T10:27:39;96769.34;;;4.97;100.00
62510;BME280;48558;48.242;11.654;2023-02-02T10:32:18;96768.03;;;5.05;100.00
62510;BME280;48558;48.242;11.654;2023-02-02T10:36:46;96781.72;;;5.05;100.00
62510;BME280;48558;48.242;11.654;2023-02-02T10:41:23;96771.19;;;5.04;100.00
62510;BME280;48558;48.242;11.654;2023-02-02T10:45:38;96778.28;;;5.01;100.00
62510;BME280;48558;48.242;11.654;2023-02-02T10:59:32;96781.66;;;5.09;100.00
62510;BME280;48558;48.242;11.654;2023-02-02T11:03:45;96755.59;;;5.01;100.00
62510;BME280;48558;48.242;11.654;2023-02-02T11:08:20;96768.94;;;5.22;100.00
62510;BME280;48558;48.242;11.654;2023-02-02T11:12:40;96748.13;;;5.25;100.00
62510;BME280;48558;48.242;11.654;2023-02-02T11:17:05;96757.69;;;5.17;100.00
62510;BME280;48558;48.242;11.654;2023-02-02T11:21:29;96774.19;;;5.13;100.00
62510;BME280;48558;48.242;11.654;2023-02-02T11:25:43;96764.41;;;5.12;100.00
62510;BME280;48558;48.242;11.654;2023-02-02T11:29:58;96785.53;;;5.12;100.00
62510;BME280;48558;48.242;11.654;2023-02-02T11:34:26;96763.72;;;5.04;100.00
62510;BME280;48558;48.242;11.654;2023-02-02T11:38:39;96775.34;;;5.12;100.00
62510;BME280;48558;48.242;11.654;2023-02-02T11:42:52;96784.41;;;5.09;100.00
62510;BME280;48558;48.242;11.654;2023-02-02T11:47:07;96771.34;;;4.93;100.00
62510;BME280;48558;48.242;11.654;2023-02-02T11:51:24;96773.88;;;5.07;100.00
62510;BME280;48558;48.242;11.654;2023-02-02T11:55:41;96783.16;;;4.87;100.00
62510;BME280;48558;48.242;11.654;2023-02-02T12:08:33;96795.19;;;4.66;100.00
62510;BME280;48558;48.242;11.654;2023-02-02T12:17:43;96789.88;;;4.56;100.00
62510;BME280;48558;48.242;11.654;2023-02-02T12:32:20;96793.13;;;4.47;100.00
62510;BME280;48558;48.242;11.654;2023-02-02T12:55:46;96816.47;;;4.21;100.00
62510;BME280;48558;48.242;11.654;2023-02-02T13:14:45;96809.88;;;4.19;100.00
62510;BME280;48558;48.242;11.654;2023-02-02T13:19:16;96817.28;;;4.18;100.00
62510;BME280;48558;48.242;11.654;2023-02-02T13:23:39;96842.31;;;4.20;100.00
62510;BME280;48558;48.242;11.654;2023-02-02T13:28:05;96840.41;;;4.14;100.00
62510;BME280;48558;48.242;11.654;2023-02-02T13:32:33;96844.75;;;4.11;100.00
62510;BME280;48558;48.242;11.654;2023-02-02T13:41:48;96828.34;;;4.11;100.00
62510;BME280;48558;48.242;11.654;2023-02-02T13:46:17;96842.25;;;4.24;100.00
62510;BME280;48558;48.242;11.654;2023-02-02T13:51:37;96863.78;;;4.18;100.00
62510;BME280;48558;48.242;11.654;2023-02-02T13:56:05;96849.75;;;4.16;100.00
62510;BME280;48558;48.242;11.654;2023-02-02T14:00:36;96842.75;;;4.12;100.00
62510;BME280;48558;48.242;11.654;2023-02-02T14:04:55;96847.44;;;4.15;100.00
62510;BME280;48558;48.242;11.654;2023-02-02T14:09:16;96856.03;;;4.13;100.00
62510;BME280;48558;48.242;11.654;2023-02-02T14:13:45;96846.28;;;4.12;100.00
62510;BME280;48558;48.242;11.654;2023-02-02T14:18:51;96873.13;;;4.24;100.00
62510;BME280;48558;48.242;11.654;2023-02-02T14:28:07;96881.41;;;4.17;100.00
62510;BME280;48558;48.242;11.654;2023-02-02T14:36:38;96881.50;;;4.07;100.00
62510;BME280;48558;48.242;11.654;2023-02-02T14:41:14;96890.78;;;4.16;100.00
62510;BME280;48558;48.242;11.654;2023-02-02T14:50:47;96898.69;;;4.07;100.00
62510;BME280;48558;48.242;11.654;2023-02-02T14:55:18;96890.78;;;4.16;100.00
62510;BME280;48558;48.242;11.654;2023-02-02T14:59:38;96892.34;;;4.14;100.00
62510;BME280;48558;48.242;11.654;2023-02-02T15:08:28;96890.09;;;4.05;100.00
62510;BME280;48558;48.242;11.654;2023-02-02T15:12:43;96904.44;;;4.16;100.00
62510;BME280;48558;48.242;11.654;2023-02-02T15:21:33;96900.16;;;4.15;100.00
62510;BME280;48558;48.242;11.654;2023-02-02T15:30:25;96925.97;;;4.14;100.00
62510;BME280;48558;48.242;11.654;2023-02-02T15:34:57;96920.16;;;4.09;100.00
62510;BME280;48558;48.242;11.654;2023-02-02T15:39:25;96945.16;;;4.07;100.00
62510;BME280;48558;48.242;11.654;2023-02-02T15:43:40;96940.88;;;4.06;100.00
62510;BME280;48558;48.242;11.654;2023-02-02T15:47:54;96924.53;;;3.99;100.00
62510;BME280;48558;48.242;11.654;2023-02-02T15:52:13;96957.72;;;4.01;100.00
62510;BME280;48558;48.242;11.654;2023-02-02T15:56:38;96965.16;;;4.01;100.00
62510;BME280;48558;48.242;11.654;2023-02-02T16:00:56;96963.88;;;4.12;100.00
62510;BME280;48558;48.242;11.654;2023-02-02T16:09:40;96965.81;;;4.12;100.00
62510;BME280;48558;48.242;11.654;2023-02-02T16:14:03;96966.19;;;4.14;100.00
62510;BME280;48558;48.242;11.654;2023-02-02T16:18:17;96943.41;;;3.87;100.00
62510;BME280;48558;48.242;11.654;2023-02-02T16:22:41;96987.69;;;4.15;100.00
62510;BME280;48558;48.242;11.654;2023-02-02T16:27:00;96988.84;;;4.18;100.00
62510;BME280;48558;48.242;11.654;2023-02-02T16:31:14;96973.97;;;4.19;100.00
62510;BME280;48558;48.242;11.654;2023-02-02T16:35:37;96985.66;;;4.23;100.00
62510;BME280;48558;48.242;11.654;2023-02-02T16:39:50;96996.63;;;4.19;100.00
62510;BME280;48558;48.242;11.654;2023-02-02T16:48:56;97019.63;;;4.25;100.00
62510;BME280;48558;48.242;11.654;2023-02-02T16:53:20;97010.31;;;4.19;100.00
62510;BME280;48558;48.242;11.654;2023-02-02T16:57:37;97030.94;;;4.27;100.00
62510;BME280;48558;48.242;11.654;2023-02-02T17:06:46;97045.03;;;4.26;100.00
62510;BME280;48558;48.242;11.654;2023-02-02T17:11:05;97051.66;;;4.28;100.00
62510;BME280;48558;48.242;11.654;2023-02-02T17:15:31;97082.94;;;4.27;100.00
62510;BME280;48558;48.242;11.654;2023-02-02T17:19:54;97061.88;;;4.24;100.00
62510;BME280;48558;48.242;11.654;2023-02-02T17:24:07;97067.72;;;4.26;100.00
62510;BME280;48558;48.242;11.654;2023-02-02T17:28:22;97089.19;;;4.28;100.00
62510;BME280;48558;48.242;11.654;2023-02-02T17:32:36;97084.06;;;4.33;100.00
62510;BME280;48558;48.242;11.654;2023-02-02T17:36:48;97100.09;;;4.31;100.00
62510;BME280;48558;48.242;11.654;2023-02-02T17:41:02;97087.59;;;4.30;100.00
62510;BME280;48558;48.242;11.654;2023-02-02T17:45:27;97093.13;;;4.27;100.00
62510;BME280;48558;48.242;11.654;2023-02-02T17:49:44;97110.59;;;4.36;100.00
62510;BME280;48558;48.242;11.654;2023-02-02T17:53:56;97113.34;;;4.40;100.00
62510;BME280;48558;48.242;11.654;2023-02-02T17:58:12;97107.81;;;4.44;100.00
62510;BME280;48558;48.242;11.654;2023-02-02T18:02:28;97113.66;;;4.46;100.00
62510;BME280;48558;48.242;11.654;2023-02-02T18:06:40;97126.97;;;4.44;100.00
62510;BME280;48558;48.242;11.654;2023-02-02T18:10:53;97134.75;;;4.49;100.00
62510;BME280;48558;48.242;11.654;2023-02-02T18:15:09;97117.22;;;4.39;100.00
62510;BME280;48558;48.242;11.654;2023-02-02T18:19:23;97118.06;;;4.36;100.00
62510;BME280;48558;48.242;11.654;2023-02-02T18:23:36;97149.66;;;4.44;100.00
62510;BME280;48558;48.242;11.654;2023-02-02T18:27:49;97142.63;;;4.43;100.00
62510;BME280;48558;48.242;11.654;2023-02-02T18:32:07;97148.06;;;4.47;100.00
62510;BME280;48558;48.242;11.654;2023-02-02T18:36:30;97147.78;;;4.30;100.00
62510;BME280;48558;48.242;11.654;2023-02-02T18:40:56;97166.16;;;4.30;100.00
62510;BME280;48558;48.242;11.654;2023-02-02T18:45:09;97152.13;;;4.24;100.00
62510;BME280;48558;48.242;11.654;2023-02-02T18:49:21;97187.66;;;4.28;100.00
62510;BME280;48558;48.242;11.654;2023-02-02T18:53:34;97181.50;;;4.13;100.00
62510;BME280;48558;48.242;11.654;2023-02-02T18:57:47;97185.44;;;4.09;100.00
62510;BME280;48558;48.242;11.654;2023-02-02T19:01:59;97195.22;;;4.06;100.00
62510;BME280;48558;48.242;11.654;2023-02-02T19:06:12;97180.34;;;4.07;100.00
62510;BME280;48558;48.242;11.654;2023-02-02T19:10:58;97190.94;;;3.98;100.00
62510;BME280;48558;48.242;11.654;2023-02-02T19:15:14;97194.50;;;3.95;100.00
62510;BME280;48558;48.242;11.654;2023-02-02T19:19:31;97193.69;;;3.98;100.00
62510;BME280;48558;48.242;11.654;2023-02-02T19:23:45;97201.13;;;3.98;100.00
62510;BME280;48558;48.242;11.654;2023-02-02T19:28:01;97203.84;;;4.01;100.00
62510;BME280;48558;48.242;11.654;2023-02-02T19:32:21;97202.69;;;3.95;100.00
62510;BME280;48558;48.242;11.654;2023-02-02T19:36:36;97198.38;;;3.94;100.00
62510;BME280;48558;48.242;11.654;2023-02-02T19:40:48;97201.13;;;3.98;100.00
62510;BME280;48558;48.242;11.654;2023-02-02T19:45:19;97216.75;;;3.97;100.00
62510;BME280;48558;48.242;11.654;2023-02-02T19:49:35;97199.19;;;3.91;100.00
62510;BME280;48558;48.242;11.654;2023-02-02T19:53:48;97212.06;;;3.94;100.00
62510;BME280;48558;48.242;11.654;2023-02-02T19:58:22;97227.66;;;4.04;100.00
62510;BME280;48558;48.242;11.654;2023-02-02T20:02:59;97237.03;;;4.07;100.00
62510;BME280;48558;48.242;11.654;2023-02-02T20:07:13;97253.81;;;4.09;100.00
62510;BME280;48558;48.242;11.654;2023-02-02T20:11:54;97247.97;;;4.07;100.00
62510;BME280;48558;48.242;11.654;2023-02-02T20:16:21;97265.94;;;4.01;100.00
62510;BME280;48558;48.242;11.654;2023-02-02T20:20:40;97261.66;;;4.00;100.00
62510;BME280;48558;48.242;11.654;2023-02-02T20:24:55;97267.88;;;4.07;100.00
62510;BME280;48558;48.242;11.654;2023-02-02T20:29:40;97251.06;;;4.05;100.00
62510;BME280;48558;48.242;11.654;2023-02-02T20:33:54;97257.75;;;4.01;100.00
62510;BME280;48558;48.242;11.654;2023-02-02T20:38:24;97242.50;;;4.03;100.00
62510;BME280;48558;48.242;11.654;2023-02-02T20:42:41;97249.16;;;4.02;100.00
62510;BME280;48558;48.242;11.654;2023-02-02T20:46:56;97264.38;;;4.07;100.00
62510;BME280;48558;48.242;11.654;2023-02-02T20:51:09;97240.94;;;4.02;100.00
62510;BME280;48558;48.242;11.654;2023-02-02T20:55:27;97254.63;;;4.02;100.00
62510;BME280;48558;48.242;11.654;2023-02-02T20:59:39;97282.31;;;4.11;100.00
62510;BME280;48558;48.242;11.654;2023-02-02T21:03:52;97283.09;;;4.12;100.00
62510;BME280;48558;48.242;11.654;2023-02-02T21:12:07;97279.19;;;4.13;100.00
62510;BME280;48558;48.242;11.654;2023-02-02T21:16:23;97294.81;;;4.12;100.00
62510;BME280;48558;48.242;11.654;2023-02-02T21:20:45;97285.09;;;4.04;100.00
62510;BME280;48558;48.242;11.654;2023-02-02T21:24:58;97285.44;;;4.10;100.00
62510;BME280;48558;48.242;11.654;2023-02-02T21:29:11;97280.75;;;4.10;100.00
62510;BME280;48558;48.242;11.654;2023-02-02T21:33:24;97287.00;;;4.07;100.00
62510;BME280;48558;48.242;11.654;2023-02-02T21:37:36;97299.13;;;4.06;100.00
62510;BME280;48558;48.242;11.654;2023-02-02T21:41:59;97297.94;;;4.07;100.00
62510;BME280;48558;48.242;11.654;2023-02-02T21:46:34;97303.81;;;4.13;100.00
62510;BME280;48558;48.242;11.654;2023-02-02T21:51:13;97283.50;;;4.03;100.00
62510;BME280;48558;48.242;11.654;2023-02-02T21:55:34;97277.66;;;4.01;100.00
62510;BME280;48558;48.242;11.654;2023-02-02T21:59:55;97299.13;;;4.13;100.00
62510;BME280;48558;48.242;11.654;2023-02-02T22:08:34;97304.16;;;4.22;100.00
62510;BME280;48558;48.242;11.654;2023-02-02T22:12:48;97279.94;;;4.17;100.00
62510;BME280;48558;48.242;11.654;2023-02-02T22:17:00;97295.56;;;4.16;100.00
62510;BME280;48558;48.242;11.654;2023-02-02T22:21:15;97303.38;;;4.21;100.00
62510;BME280;48558;48.242;11.654;2023-02-02T22:25:35;97311.19;;;4.19;100.00
62510;BME280;48558;48.242;11.654;2023-02-02T22:29:56;97305.72;;;4.26;100.00
62510;BME280;48558;48.242;11.654;2023-02-02T22:34:21;97321.38;;;4.22;100.00
62510;BME280;48558;48.242;11.654;2023-02-02T22:38:35;97299.88;;;4.17;100.00
62510;BME280;48558;48.242;11.654;2023-02-02T22:42:49;97318.19;;;4.27;100.00
62510;BME280;48558;48.242;11.654;2023-02-02T22:47:12;97305.34;;;4.17;100.00
62510;BME280;48558;48.242;11.654;2023-02-02T22:51:25;97318.97;;;4.28;100.00
62510;BME280;48558;48.242;11.654;2023-02-02T22:55:47;97314.28;;;4.28;100.00
62510;BME280;48558;48.242;11.654;2023-02-02T23:00:13;97327.56;;;4.30;100.00
62510;BME280;48558;48.242;11.654;2023-02-02T23:04:27;97318.97;;;4.28;100.00
62510;BME280;48558;48.242;11.654;2023-02-02T23:08:40;97322.13;;;4.26;100.00
62510;BME280;48558;48.242;11.654;2023-02-02T23:13:03;97333.44;;;4.28;100.00
62510;BME280;48558;48.242;11.654;2023-02-02T23:17:16;97336.22;;;4.25;100.00
62510;BME280;48558;48.242;11.654;2023-02-02T23:21:29;97344.00;;;4.26;100.00
62510;BME280;48558;48.242;11.654;2023-02-02T23:25:42;97331.09;;;4.30;100.00
62510;BME280;48558;48.242;11.654;2023-02-02T23:29:54;97348.66;;;4.36;100.00
62510;BME280;48558;48.242;11.654;2023-02-02T23:34:17;97324.84;;;4.30;100.00
62510;BME280;48558;48.242;11.654;2023-02-02T23:38:29;97335.41;;;4.24;100.00
62510;BME280;48558;48.242;11.654;2023-02-02T23:42:42;97320.56;;;4.29;100.00
62510;BME280;48558;48.242;11.654;2023-02-02T23:46:54;97317.81;;;4.29;100.00
62510;BME280;48558;48.242;11.654;2023-02-02T23:51:07;97315.47;;;4.31;100.00
62510;BME280;48558;48.242;11.654;2023-02-02T23:55:20;97307.22;;;4.34;100.00
62510;BME280;48558;48.242;11.654;2023-02-02T23:59:33;97302.19;;;4.29;100.00
